Time;durP1;ratioP1;P1;durP2;ratioP2;P2;SDS_P1;SDS_P2;PMS_P1;PMS_P2;Temp;Humidity;BMP_temperature;BMP_pressure;BME280_temperature;BME280_humidity;BME280_pressure;Samples;Min_cycle;Max_cycle;Signal;HPM_P1;HPM_P2
2022/05/17 06:36:31;;;;;;;1.40;0.83;;;18.00;99.90;;;;;;3349797;23;20241;-72
2022/05/17 06:38:58;;;;;;;3.33;0.83;;;18.20;99.90;;;;;;4918198;29;20213;-72
2022/05/17 06:41:25;;;;;;;2.67;0.90;;;18.20;99.90;;;;;;4919052;29;20206;-74
2022/05/17 06:43:52;;;;;;;2.97;1.00;;;18.20;99.90;;;;;;4920045;29;20236;-73
2022/05/17 06:46:19;;;;;;;4.90;1.10;;;18.10;99.90;;;;;;4919552;29;20233;-74
2022/05/17 06:48:45;;;;;;;2.43;0.87;;;18.00;99.90;;;;;;4919590;29;20209;-74
2022/05/17 06:51:12;;;;;;;1.97;0.93;;;18.10;99.90;;;;;;4919764;29;20220;-75
2022/05/17 06:53:41;;;;;;;3.40;1.00;;;18.20;99.90;;;;;;4919759;29;20229;-75
2022/05/17 06:56:08;;;;;;;2.63;0.93;;;18.30;99.90;;;;;;4919634;29;20206;-74
2022/05/17 06:58:35;;;;;;;1.77;1.00;;;18.40;99.90;;;;;;4919664;29;20216;-75
2022/05/17 07:01:02;;;;;;;1.90;0.90;;;18.50;99.90;;;;;;4919706;29;20296;-75
2022/05/17 07:03:29;;;;;;;2.57;1.07;;;18.50;99.90;;;;;;4919383;29;20235;-74
2022/05/17 07:05:55;;;;;;;2.27;1.03;;;18.50;99.90;;;;;;4919442;29;20252;-75
2022/05/17 07:08:22;;;;;;;2.83;0.90;;;18.50;99.90;;;;;;4919327;29;20237;-74
2022/05/17 07:13:35;;;;;;;1.43;0.90;;;18.50;99.90;;;;;;4919717;29;20698;-74
2022/05/17 07:16:01;;;;;;;3.83;1.23;;;18.60;99.90;;;;;;4919231;29;20206;-73
2022/05/17 07:18:29;;;;;;;2.20;1.37;;;18.70;99.90;;;;;;4919316;29;20665;-74
2022/05/17 07:20:58;;;;;;;4.17;1.30;;;18.80;99.90;;;;;;4919014;29;20580;-74
2022/05/17 07:23:26;;;;;;;3.57;1.20;;;18.80;99.90;;;;;;4919166;29;20233;-72
2022/05/17 07:25:55;;;;;;;3.23;1.13;;;18.80;99.90;;;;;;4919233;29;20300;-73
2022/05/17 07:28:23;;;;;;;3.83;1.10;;;19.10;99.90;;;;;;4918894;29;20577;-73
2022/05/17 07:30:51;;;;;;;2.10;1.10;;;19.30;99.90;;;;;;4918937;29;20683;-72
2022/05/17 07:33:19;;;;;;;3.30;1.33;;;19.40;99.90;;;;;;4919127;29;20230;-72
2022/05/17 07:35:46;;;;;;;2.80;1.27;;;19.70;99.90;;;;;;4919057;29;20212;-72
2022/05/17 07:38:13;;;;;;;5.07;1.35;;;19.90;99.90;;;;;;4918833;29;20224;-75
2022/05/17 07:40:41;;;;;;;1.75;1.13;;;20.10;99.90;;;;;;4918874;29;20209;-72
2022/05/17 07:43:10;;;;;;;2.45;1.13;;;20.30;99.90;;;;;;4918401;29;20213;-72
2022/05/17 07:45:37;;;;;;;3.20;1.60;;;20.50;99.90;;;;;;4918760;29;20209;-72
2022/05/17 07:48:04;;;;;;;2.10;1.20;;;20.60;99.90;;;;;;4918758;29;20237;-72
2022/05/17 07:50:32;;;;;;;6.32;1.30;;;20.80;99.90;;;;;;4918659;29;20245;-73
2022/05/17 07:53:04;;;;;;;3.50;1.52;;;21.00;99.90;;;;;;4918488;29;20218;-72
2022/05/17 07:55:31;;;;;;;3.38;1.42;;;21.20;99.90;;;;;;4918335;29;20209;-73
2022/05/17 07:57:57;;;;;;;3.00;1.02;;;21.30;99.90;;;;;;4918217;29;20214;-73
2022/05/17 08:00:26;;;;;;;2.75;1.08;;;21.50;99.90;;;;;;4918379;29;20213;-73
2022/05/17 08:02:55;;;;;;;3.28;1.40;;;21.50;99.90;;;;;;4918475;29;20575;-72
2022/05/17 08:05:23;;;;;;;2.65;1.27;;;21.90;99.90;;;;;;4918520;29;20209;-72
2022/05/17 08:07:49;;;;;;;3.40;1.60;;;22.20;99.90;;;;;;4918048;29;20593;-72
2022/05/17 08:10:16;;;;;;;2.28;1.42;;;22.50;99.90;;;;;;4918190;29;20205;-74
2022/05/17 08:12:43;;;;;;;1.55;1.13;;;22.70;99.90;;;;;;4918372;29;20213;-74
2022/05/17 08:15:11;;;;;;;2.28;1.20;;;22.70;99.90;;;;;;4918232;29;20230;-73
2022/05/17 08:17:40;;;;;;;4.20;1.50;;;23.00;99.90;;;;;;4918181;29;20214;-73
2022/05/17 08:20:09;;;;;;;2.13;1.35;;;23.50;99.90;;;;;;4918000;29;20224;-74
2022/05/17 08:22:38;;;;;;;2.95;1.20;;;24.40;99.90;;;;;;4917071;29;20300;-74
2022/05/17 08:27:46;;;;;;;2.15;1.40;;;24.80;99.90;;;;;;4896271;29;20552;-73
2022/05/17 08:30:15;;;;;;;3.15;1.50;;;24.90;99.90;;;;;;4918231;29;20220;-74
2022/05/17 08:35:37;;;;;;;2.55;1.50;;;23.60;99.90;;;;;;4917872;29;20209;-72
2022/05/17 08:38:04;;;;;;;2.00;1.23;;;23.10;99.90;;;;;;4917804;29;20217;-73
2022/05/17 08:40:33;;;;;;;2.67;1.60;;;23.20;99.90;;;;;;4918059;29;20209;-72
2022/05/17 08:43:09;;;;;;;2.85;1.60;;;23.50;99.90;;;;;;4917834;29;20221;-72
2022/05/17 08:45:41;;;;;;;3.10;1.75;;;24.00;99.90;;;;;;4917468;29;20217;-72
2022/05/17 08:48:17;;;;;;;2.10;1.40;;;24.90;99.90;;;;;;4917388;29;20325;-74
2022/05/17 08:50:47;;;;;;;2.60;1.50;;;25.80;99.90;;;;;;4917465;29;20213;-72
2022/05/17 08:53:19;;;;;;;4.10;1.77;;;26.10;99.90;;;;;;4917140;29;20289;-72
2022/05/17 08:55:49;;;;;;;4.63;1.55;;;26.30;99.90;;;;;;4917240;29;20221;-72
2022/05/17 08:58:21;;;;;;;2.55;1.27;;;26.30;99.90;;;;;;4917004;29;20735;-74
2022/05/17 09:00:51;;;;;;;4.07;1.60;;;26.80;99.90;;;;;;4917528;29;20213;-72
2022/05/17 09:03:32;;;;;;;2.95;2.22;;;27.00;99.90;;;;;;4917251;29;20240;-72
2022/05/17 09:06:04;;;;;;;3.75;1.30;;;27.40;99.90;;;;;;4917210;29;20206;-72
2022/05/17 09:08:42;;;;;;;3.78;1.58;;;27.70;99.90;;;;;;4916836;29;20233;-72
2022/05/17 09:11:17;;;;;;;3.33;1.52;;;28.10;99.30;;;;;;4917041;29;20216;-72
2022/05/17 09:13:48;;;;;;;3.55;1.60;;;28.10;99.60;;;;;;4917199;29;20244;-72
2022/05/17 09:16:16;;;;;;;3.78;1.60;;;28.30;99.00;;;;;;4917088;29;20209;-71
2022/05/17 09:18:46;;;;;;;2.53;1.52;;;28.50;98.60;;;;;;4917158;29;20210;-72
2022/05/17 09:21:29;;;;;;;2.47;1.70;;;28.40;98.40;;;;;;4917116;29;20217;-73
2022/05/17 09:23:58;;;;;;;2.47;1.90;;;28.70;98.80;;;;;;4917313;29;20237;-71
2022/05/17 09:26:26;;;;;;;1.67;1.38;;;28.60;98.20;;;;;;4917028;29;20209;-72
2022/05/17 09:28:58;;;;;;;4.32;1.40;;;28.90;98.30;;;;;;4916975;29;20245;-72
2022/05/17 09:31:31;;;;;;;3.08;1.83;;;29.20;98.00;;;;;;4916879;29;20209;-72
2022/05/17 09:34:04;;;;;;;3.47;1.83;;;28.80;97.70;;;;;;4916117;29;20234;-72
2022/05/17 09:36:34;;;;;;;3.72;1.98;;;29.00;97.60;;;;;;4917216;29;20221;-72
2022/05/17 09:39:02;;;;;;;4.25;2.03;;;28.70;97.60;;;;;;4916947;29;20218;-72
2022/05/17 09:41:34;;;;;;;5.70;3.65;;;28.70;97.70;;;;;;4916564;29;20216;-72
2022/05/17 09:44:05;;;;;;;2.35;1.85;;;28.30;97.90;;;;;;4916774;29;20241;-72
2022/05/17 09:46:34;;;;;;;4.55;3.15;;;28.40;97.90;;;;;;4916786;29;20240;-72
2022/05/17 09:54:39;;;;;;;2.28;1.50;;;27.60;98.20;;;;;;4916853;29;20276;-72
2022/05/17 09:57:25;;;;;;;4.07;1.70;;;27.40;99.00;;;;;;4916736;29;20209;-74
2022/05/17 09:59:55;;;;;;;3.95;1.60;;;27.10;99.60;;;;;;4916774;29;20209;-72
2022/05/17 10:02:41;;;;;;;3.30;1.70;;;26.80;99.90;;;;;;4916488;29;20210;-72
2022/05/17 10:05:21;;;;;;;2.80;1.80;;;26.30;99.90;;;;;;4912704;29;20231;-76
2022/05/17 10:07:54;;;;;;;2.67;1.70;;;26.30;99.90;;;;;;4915238;29;20249;-72
2022/05/17 10:10:30;;;;;;;3.28;1.77;;;26.30;99.90;;;;;;4915210;29;20216;-72
2022/05/17 10:13:03;;;;;;;3.05;1.92;;;26.20;99.70;;;;;;4914678;29;20300;-71
2022/05/17 10:15:32;;;;;;;3.10;1.88;;;26.30;99.90;;;;;;4915331;29;20213;-70
2022/05/17 10:18:02;;;;;;;4.50;1.40;;;26.50;99.90;;;;;;4915200;29;20580;-71
2022/05/17 10:20:35;;;;;;;2.55;1.70;;;26.70;99.90;;;;;;4914670;29;20220;-70
2022/05/17 10:23:06;;;;;;;2.20;1.33;;;26.60;99.90;;;;;;4915437;29;20213;-72
2022/05/17 10:25:41;;;;;;;4.72;1.60;;;26.70;99.90;;;;;;4915129;29;20220;-71
2022/05/17 10:28:14;;;;;;;3.55;1.65;;;26.80;99.90;;;;;;4914365;29;20277;-72
2022/05/17 10:30:51;;;;;;;2.20;1.40;;;26.70;99.90;;;;;;4914819;29;20213;-73
2022/05/17 10:33:27;;;;;;;3.20;1.85;;;26.50;99.90;;;;;;4915083;29;20595;-71
2022/05/17 10:36:02;;;;;;;1.75;1.35;;;26.60;99.80;;;;;;4914219;29;20212;-72
2022/05/17 10:38:35;;;;;;;2.58;1.42;;;26.80;99.90;;;;;;4915080;29;20205;-72
2022/05/17 10:41:06;;;;;;;3.42;1.55;;;27.10;99.60;;;;;;4915122;29;20251;-70
2022/05/17 10:43:36;;;;;;;2.55;1.60;;;27.20;99.30;;;;;;4914767;29;20230;-71
2022/05/17 10:46:10;;;;;;;1.13;1.02;;;27.30;98.30;;;;;;4916982;29;20241;-72
2022/05/17 10:48:50;;;;;;;1.85;0.80;;;27.40;98.40;;;;;;4916006;29;20952;-72
2022/05/17 10:51:25;;;;;;;2.25;0.90;;;27.30;97.70;;;;;;4918453;29;20213;-73
2022/05/17 10:54:01;;;;;;;1.17;0.98;;;27.40;98.40;;;;;;4918399;29;20802;-70
2022/05/17 10:56:42;;;;;;;2.78;0.90;;;27.60;97.60;;;;;;4918592;29;20215;-75
2022/05/17 10:59:18;;;;;;;3.63;1.25;;;27.60;98.10;;;;;;4919654;29;20209;-71
2022/05/17 11:01:57;;;;;;;3.10;0.95;;;27.50;97.60;;;;;;4919751;29;20663;-70
2022/05/17 11:04:58;;;;;;;1.17;0.80;;;27.70;97.40;;;;;;4919526;29;20229;-71
2022/05/17 11:07:37;;;;;;;1.27;0.68;;;27.60;96.70;;;;;;4919391;29;20209;-71
2022/05/17 11:10:15;;;;;;;3.75;0.95;;;27.80;97.10;;;;;;4919735;29;20209;-75
2022/05/17 11:12:49;;;;;;;2.42;1.00;;;27.80;96.60;;;;;;4919392;29;20209;-71
2022/05/17 11:15:19;;;;;;;1.63;0.80;;;27.60;96.10;;;;;;4918732;29;20239;-72
2022/05/17 11:17:51;;;;;;;0.85;0.70;;;27.50;96.60;;;;;;4918632;29;20221;-75
2022/05/17 11:20:23;;;;;;;4.13;1.00;;;27.60;96.60;;;;;;4918968;29;20249;-73
2022/05/17 11:23:06;;;;;;;1.60;0.95;;;27.70;96.30;;;;;;4919045;29;20235;-71
2022/05/17 11:26:11;;;;;;;0.93;0.73;;;27.70;96.60;;;;;;4919303;29;20206;-74
2022/05/17 11:28:54;;;;;;;1.77;1.33;;;27.80;95.70;;;;;;4910501;29;20241;-76
2022/05/17 11:31:37;;;;;;;1.27;0.90;;;27.50;96.10;;;;;;4919215;29;20260;-75
2022/05/17 11:34:26;;;;;;;1.10;0.77;;;27.60;96.90;;;;;;4918875;29;20233;-70
2022/05/17 11:36:55;;;;;;;1.48;0.90;;;27.80;96.30;;;;;;4918594;29;20217;-73
2022/05/17 11:39:48;;;;;;;2.08;0.85;;;27.90;95.20;;;;;;4918851;29;20209;-71
2022/05/17 11:42:28;;;;;;;1.75;0.80;;;27.70;95.40;;;;;;4918806;29;20205;-75
2022/05/17 11:44:56;;;;;;;2.05;0.85;;;27.60;95.50;;;;;;4918474;29;20326;-73
2022/05/17 11:47:32;;;;;;;1.40;0.90;;;27.80;96.20;;;;;;4918823;29;20215;-72
2022/05/17 11:50:42;;;;;;;1.88;0.88;;;28.20;95.90;;;;;;4918757;29;20209;-73
2022/05/17 11:53:34;;;;;;;2.38;0.80;;;28.30;94.50;;;;;;4918331;29;20547;-73
2022/05/17 11:56:18;;;;;;;2.88;0.77;;;28.10;94.30;;;;;;4918515;29;20265;-73
2022/05/17 11:58:46;;;;;;;0.73;0.60;;;28.20;94.30;;;;;;4918156;29;20235;-72
2022/05/17 12:01:45;;;;;;;0.98;0.60;;;28.20;93.70;;;;;;4918525;29;20220;-74
2022/05/17 12:04:39;;;;;;;2.22;0.68;;;28.20;93.60;;;;;;4913246;29;20229;-72
2022/05/17 12:07:26;;;;;;;1.75;1.45;;;28.00;94.10;;;;;;4918525;29;20236;-73
2022/05/17 12:09:55;;;;;;;1.42;0.50;;;28.10;93.80;;;;;;4918018;29;20328;-71
2022/05/17 12:13:00;;;;;;;1.38;0.80;;;28.20;92.80;;;;;;4918322;29;20308;-72
2022/05/17 12:15:47;;;;;;;1.85;0.60;;;28.20;92.80;;;;;;4918311;29;20229;-71
2022/05/17 12:18:27;;;;;;;1.23;0.77;;;28.10;92.00;;;;;;4918114;29;20241;-76
2022/05/17 12:21:16;;;;;;;1.67;0.60;;;28.20;92.30;;;;;;4918419;29;20610;-72
2022/05/17 12:23:50;;;;;;;0.77;0.60;;;28.20;92.00;;;;;;4917910;29;20239;-74
2022/05/17 12:26:26;;;;;;;2.15;0.65;;;28.10;91.20;;;;;;4918104;29;20213;-71
2022/05/17 12:28:54;;;;;;;1.23;0.73;;;28.30;90.50;;;;;;4917952;29;20700;-71
2022/05/17 12:31:25;;;;;;;1.63;0.55;;;28.20;90.30;;;;;;4918166;29;20214;-73
2022/05/17 12:33:52;;;;;;;1.55;0.80;;;28.30;90.60;;;;;;4936025;23;20319;-71
2022/05/17 12:36:23;;;;;;;1.25;0.60;;;28.30;90.90;;;;;;4937027;29;20665;-73
2022/05/17 12:44:32;;;;;;;0.73;0.50;;;28.60;87.70;;;;;;4936521;29;20288;-73
2022/05/17 12:47:01;;;;;;;0.70;0.38;;;28.60;87.30;;;;;;4936768;29;20215;-71
2022/05/17 12:49:30;;;;;;;0.70;0.43;;;28.50;83.70;;;;;;4936588;29;20596;-72
2022/05/17 12:52:01;;;;;;;0.85;0.47;;;28.40;83.20;;;;;;4936628;29;20572;-72
2022/05/17 12:54:31;;;;;;;1.30;0.65;;;28.50;81.70;;;;;;4936570;29;20229;-72
2022/05/17 12:56:59;;;;;;;0.70;0.45;;;28.60;81.70;;;;;;4936423;29;20293;-72
2022/05/17 12:59:28;;;;;;;0.60;0.40;;;28.50;80.40;;;;;;4936320;29;20671;-72
2022/05/17 13:01:57;;;;;;;1.45;0.40;;;28.30;83.60;;;;;;4936025;29;20209;-73
2022/05/17 13:04:29;;;;;;;1.20;0.32;;;28.20;81.40;;;;;;4936117;29;20699;-72
2022/05/17 13:07:12;;;;;;;1.23;0.30;;;28.10;80.60;;;;;;4936247;29;20683;-72
2022/05/17 13:09:53;;;;;;;0.80;0.43;;;28.10;80.00;;;;;;4936151;29;20244;-72
2022/05/17 13:12:19;;;;;;;0.82;0.40;;;28.20;76.60;;;;;;4936177;29;20244;-72
2022/05/17 13:14:48;;;;;;;0.50;0.30;;;28.30;77.90;;;;;;4936152;29;20248;-74
2022/05/17 13:17:21;;;;;;;0.57;0.30;;;28.40;77.50;;;;;;4936542;29;20269;-73
2022/05/17 13:19:53;;;;;;;0.40;0.25;;;28.30;72.70;;;;;;4936564;29;20576;-72
2022/05/17 13:22:24;;;;;;;0.50;0.30;;;28.20;72.00;;;;;;4936008;29;20664;-70
2022/05/17 13:24:52;;;;;;;0.80;0.32;;;28.00;72.40;;;;;;4935698;29;20232;-71
2022/05/17 13:27:26;;;;;;;0.82;0.40;;;27.90;73.50;;;;;;4935864;29;20213;-71
2022/05/17 13:29:56;;;;;;;0.60;0.38;;;27.90;74.80;;;;;;4936128;29;20243;-71
2022/05/17 13:32:25;;;;;;;1.30;0.30;;;27.90;76.40;;;;;;4936026;29;20215;-71
2022/05/17 13:35:18;;;;;;;2.75;0.40;;;28.10;77.40;;;;;;4935599;29;20252;-72
2022/05/17 13:38:02;;;;;;;1.08;0.77;;;28.10;78.10;;;;;;4935511;29;20215;-72
2022/05/17 13:40:41;;;;;;;0.50;0.30;;;28.10;78.00;;;;;;4935676;29;20209;-71
2022/05/17 13:43:29;;;;;;;1.75;0.32;;;28.20;79.40;;;;;;4935828;29;20208;-71
2022/05/17 13:46:14;;;;;;;0.50;0.30;;;28.30;75.70;;;;;;4936053;29;20211;-70
2022/05/17 13:48:54;;;;;;;1.85;0.47;;;28.30;75.20;;;;;;4936013;29;20239;-72
2022/05/17 13:51:28;;;;;;;0.65;0.35;;;28.50;73.50;;;;;;4935738;29;20304;-71
2022/05/17 13:54:00;;;;;;;1.60;0.30;;;28.50;67.80;;;;;;4935465;29;20260;-71
2022/05/17 13:56:30;;;;;;;0.80;0.35;;;28.20;68.80;;;;;;4935822;29;20208;-71
2022/05/17 13:58:59;;;;;;;0.40;0.30;;;28.10;70.60;;;;;;4936158;29;20208;-71
2022/05/17 14:01:32;;;;;;;0.38;0.30;;;28.10;70.80;;;;;;4935768;29;20719;-71
2022/05/17 14:04:09;;;;;;;0.82;0.30;;;28.10;72.20;;;;;;4935636;29;20255;-71
2022/05/17 14:06:54;;;;;;;1.10;0.80;;;28.10;72.70;;;;;;4935549;29;20204;-71
2022/05/17 14:12:10;;;;;;;2.10;0.40;;;28.10;72.20;;;;;;4935709;29;20208;-72
2022/05/17 14:14:38;;;;;;;0.75;0.60;;;28.20;72.40;;;;;;4935502;29;20229;-73
2022/05/17 14:17:12;;;;;;;1.20;0.43;;;28.30;76.50;;;;;;4935670;29;20689;-73
2022/05/17 14:19:40;;;;;;;1.00;0.43;;;28.50;75.90;;;;;;4935547;29;20208;-71
2022/05/17 14:22:11;;;;;;;2.00;0.60;;;28.60;75.10;;;;;;4939168;29;20272;-71
2022/05/17 14:24:38;;;;;;;1.20;0.82;;;28.80;75.10;;;;;;4939072;29;20316;-71
2022/05/17 14:27:05;;;;;;;5.43;0.38;;;29.00;72.50;;;;;;4939241;29;20215;-72
2022/05/17 14:29:34;;;;;;;1.60;0.40;;;29.10;73.30;;;;;;4938989;29;20648;-72
2022/05/17 14:32:02;;;;;;;1.85;0.40;;;29.30;70.70;;;;;;4939397;29;20534;-72
2022/05/17 14:34:29;;;;;;;1.95;0.30;;;29.20;71.60;;;;;;4939039;29;20246;-73
2022/05/17 14:36:56;;;;;;;0.60;0.40;;;29.20;71.20;;;;;;4939092;29;20208;-72
2022/05/17 14:39:24;;;;;;;0.73;0.43;;;29.30;70.30;;;;;;4938770;29;20211;-72
2022/05/17 14:41:54;;;;;;;1.55;0.38;;;29.40;70.40;;;;;;4938952;29;20205;-74
2022/05/17 14:44:22;;;;;;;0.47;0.40;;;29.30;70.50;;;;;;4939114;29;20233;-73
2022/05/17 14:46:49;;;;;;;0.70;0.30;;;29.20;69.20;;;;;;4938959;29;20253;-72
2022/05/17 14:49:22;;;;;;;0.40;0.40;;;29.20;66.80;;;;;;4937884;29;20591;-72
2022/05/17 14:51:49;;;;;;;0.98;0.30;;;29.00;68.20;;;;;;4938672;29;20287;-73
2022/05/17 14:54:17;;;;;;;0.95;0.38;;;28.90;67.60;;;;;;4938115;29;20225;-71
2022/05/17 14:56:45;;;;;;;1.70;0.40;;;28.90;67.90;;;;;;4938812;29;20227;-71
2022/05/17 14:59:12;;;;;;;0.30;0.20;;;28.70;68.70;;;;;;4938696;29;20219;-72
2022/05/17 15:01:43;;;;;;;0.85;0.20;;;28.60;70.00;;;;;;4938845;29;20204;-74
2022/05/17 15:04:11;;;;;;;1.38;0.50;;;28.60;72.80;;;;;;4938647;29;20232;-72
2022/05/17 15:06:49;;;;;;;8.30;1.02;;;28.50;71.80;;;;;;4938395;29;20616;-72
2022/05/17 15:09:18;;;;;;;1.05;0.47;;;28.60;74.20;;;;;;4938647;29;20236;-73
2022/05/17 15:11:47;;;;;;;1.90;0.40;;;28.50;70.50;;;;;;4938377;29;20209;-73
2022/05/17 15:14:14;;;;;;;0.95;0.43;;;28.60;70.70;;;;;;4938298;29;20233;-73
2022/05/17 15:16:42;;;;;;;0.57;0.38;;;28.60;71.80;;;;;;4938143;29;20208;-73
2022/05/17 15:19:12;;;;;;;0.85;0.30;;;28.50;69.20;;;;;;4938473;29;20276;-73
2022/05/17 15:21:41;;;;;;;0.40;0.30;;;28.60;71.00;;;;;;4938138;29;20205;-72
2022/05/17 15:24:09;;;;;;;2.25;0.40;;;28.60;68.50;;;;;;4938355;29;20624;-72
2022/05/17 15:26:37;;;;;;;0.93;0.40;;;28.60;69.00;;;;;;4938386;29;20215;-73
2022/05/17 15:29:06;;;;;;;1.75;0.30;;;28.70;69.10;;;;;;4938196;29;20236;-72
2022/05/17 15:31:35;;;;;;;2.33;0.40;;;28.70;70.20;;;;;;4937341;29;20213;-74
2022/05/17 15:34:04;;;;;;;1.05;0.40;;;28.80;68.80;;;;;;4937756;29;20268;-72
2022/05/17 15:36:31;;;;;;;0.88;0.57;;;28.80;68.30;;;;;;4938363;29;20212;-72
2022/05/17 15:38:58;;;;;;;0.80;0.47;;;28.80;70.60;;;;;;4938239;29;20220;-71
2022/05/17 15:41:25;;;;;;;1.25;0.47;;;28.90;71.50;;;;;;4938042;29;20217;-72
2022/05/17 15:43:52;;;;;;;1.98;0.60;;;29.00;74.00;;;;;;4938007;29;20233;-72
2022/05/17 15:46:25;;;;;;;0.70;0.50;;;29.20;73.60;;;;;;4937707;29;20212;-71
2022/05/17 15:54:25;;;;;;;0.60;0.40;;;29.00;72.80;;;;;;4937726;29;20223;-73
2022/05/17 15:56:52;;;;;;;2.00;0.40;;;28.90;70.30;;;;;;4938141;29;20686;-72
2022/05/17 15:59:21;;;;;;;2.70;0.50;;;28.90;70.20;;;;;;4938197;29;20220;-71
2022/05/17 16:01:53;;;;;;;1.20;0.40;;;28.80;70.40;;;;;;4937531;29;20312;-72
2022/05/17 16:09:50;;;;;;;0.95;0.40;;;28.20;69.30;;;;;;4917612;29;20252;-73
2022/05/17 16:12:17;;;;;;;0.77;0.43;;;28.10;70.70;;;;;;4918115;29;20237;-73
2022/05/17 16:14:43;;;;;;;0.80;0.57;;;28.10;71.30;;;;;;4917612;29;20229;-73
2022/05/17 16:17:12;;;;;;;1.95;0.60;;;28.10;72.50;;;;;;4920574;29;20228;-72
2022/05/17 16:19:41;;;;;;;2.58;0.57;;;28.00;72.60;;;;;;4936946;29;20216;-72
2022/05/17 16:22:09;;;;;;;1.05;0.52;;;27.90;72.40;;;;;;4936167;29;20638;-72
2022/05/17 16:24:38;;;;;;;0.60;0.40;;;27.90;74.50;;;;;;4917615;29;20578;-73
2022/05/17 16:27:06;;;;;;;1.48;0.60;;;27.80;73.50;;;;;;4917565;29;20688;-72
2022/05/17 16:29:33;;;;;;;2.20;0.60;;;27.80;72.50;;;;;;4917171;29;20332;-73
2022/05/17 16:32:00;;;;;;;0.65;0.55;;;27.80;73.00;;;;;;4917541;29;20210;-73
2022/05/17 16:34:31;;;;;;;2.00;0.50;;;27.70;74.30;;;;;;4917110;29;20244;-73
2022/05/17 16:36:58;;;;;;;2.85;0.50;;;27.80;73.00;;;;;;4918296;29;20677;-73
2022/05/17 16:39:26;;;;;;;2.28;0.65;;;27.80;70.70;;;;;;4917651;29;20260;-73
2022/05/17 16:41:55;;;;;;;2.35;0.40;;;27.70;70.50;;;;;;4918116;29;20224;-73
2022/05/17 16:44:22;;;;;;;1.95;0.50;;;27.70;70.50;;;;;;4917494;29;20771;-73
2022/05/17 16:46:50;;;;;;;1.33;0.60;;;27.60;69.20;;;;;;4917268;29;20661;-74
2022/05/17 16:49:18;;;;;;;1.77;0.70;;;27.40;69.60;;;;;;4917073;29;20781;-75
2022/05/17 16:51:46;;;;;;;2.42;0.57;;;27.40;69.50;;;;;;4917382;29;20213;-74
2022/05/17 16:54:14;;;;;;;3.22;0.57;;;27.20;70.10;;;;;;4917140;29;20282;-74
2022/05/17 16:56:41;;;;;;;1.73;0.60;;;27.20;69.20;;;;;;4916909;29;20681;-74
2022/05/17 16:59:08;;;;;;;0.85;0.45;;;27.00;69.20;;;;;;4916824;29;20240;-74
2022/05/17 17:01:36;;;;;;;1.00;0.65;;;27.00;69.70;;;;;;4917058;29;20233;-73
2022/05/17 17:04:03;;;;;;;5.35;1.90;;;26.90;69.70;;;;;;4917151;29;20236;-74
2022/05/17 17:06:33;;;;;;;1.38;0.75;;;26.90;70.90;;;;;;4917137;29;20209;-73
2022/05/17 17:09:01;;;;;;;1.88;0.95;;;26.80;69.70;;;;;;4916700;29;20213;-74
2022/05/17 17:11:28;;;;;;;0.60;0.43;;;26.80;70.10;;;;;;4916977;29;20617;-75
2022/05/17 17:13:55;;;;;;;1.08;0.50;;;26.80;69.90;;;;;;4917226;29;20226;-74
2022/05/17 17:16:24;;;;;;;1.70;0.70;;;26.90;70.80;;;;;;4917122;29;20216;-74
2022/05/17 17:18:51;;;;;;;0.73;0.35;;;26.90;71.20;;;;;;4916762;29;20237;-74
2022/05/17 17:21:18;;;;;;;0.75;0.32;;;26.90;70.90;;;;;;4916681;29;20224;-73
2022/05/17 17:23:45;;;;;;;2.05;0.63;;;26.90;72.00;;;;;;4916021;29;20585;-74
2022/05/17 17:26:16;;;;;;;4.13;1.58;;;26.80;71.30;;;;;;4916114;29;20210;-74
2022/05/17 17:28:43;;;;;;;0.70;0.60;;;26.90;71.50;;;;;;4916148;29;20668;-74
2022/05/17 17:31:11;;;;;;;2.20;0.75;;;26.80;70.30;;;;;;4916137;29;20268;-74
2022/05/17 17:39:07;;;;;;;1.00;0.55;;;26.60;71.60;;;;;;4915762;29;20240;-74
2022/05/17 17:41:36;;;;;;;5.80;1.38;;;26.60;73.00;;;;;;4916130;29;20697;-73
2022/05/17 17:44:04;;;;;;;2.92;1.00;;;26.60;75.20;;;;;;4917629;29;20489;-74
2022/05/17 17:46:31;;;;;;;2.65;0.65;;;26.70;74.00;;;;;;4921812;29;20572;-73
2022/05/17 17:48:58;;;;;;;3.25;1.25;;;26.60;74.50;;;;;;4915290;29;20580;-74
2022/05/17 17:51:24;;;;;;;0.60;0.32;;;26.50;73.80;;;;;;4915882;29;20244;-74
2022/05/17 17:53:51;;;;;;;2.33;0.60;;;26.60;73.00;;;;;;4916421;29;20233;-74
2022/05/17 17:56:21;;;;;;;2.28;0.70;;;26.60;74.60;;;;;;4929834;29;20209;-74
2022/05/17 17:58:49;;;;;;;1.13;0.65;;;26.60;74.30;;;;;;4939642;29;20248;-73
2022/05/17 18:01:17;;;;;;;0.80;0.50;;;26.50;71.50;;;;;;4939345;29;20217;-73
2022/05/17 18:03:44;;;;;;;2.38;0.70;;;26.40;72.90;;;;;;4932662;29;20221;-74
2022/05/17 18:06:10;;;;;;;2.85;0.68;;;26.30;74.20;;;;;;4919823;29;20219;-74
2022/05/17 18:08:37;;;;;;;0.90;0.50;;;26.30;74.10;;;;;;4920093;29;20210;-73
2022/05/17 18:11:09;;;;;;;2.05;0.40;;;26.20;73.80;;;;;;4928531;29;20604;-74
2022/05/17 18:13:40;;;;;;;2.25;0.50;;;26.20;73.50;;;;;;4938960;29;20231;-74
2022/05/17 18:16:11;;;;;;;0.60;0.43;;;26.00;73.90;;;;;;4939205;29;20212;-74
2022/05/17 18:18:38;;;;;;;1.95;0.50;;;26.10;75.40;;;;;;4938903;29;20231;-74
2022/05/17 18:21:05;;;;;;;1.08;0.47;;;26.00;73.60;;;;;;4938119;29;20205;-73
2022/05/17 18:23:32;;;;;;;2.15;0.50;;;26.10;74.40;;;;;;4938574;29;20592;-74
2022/05/17 18:25:59;;;;;;;1.38;0.45;;;26.00;73.50;;;;;;4938424;29;20209;-74
2022/05/17 18:28:28;;;;;;;2.45;0.70;;;26.00;74.40;;;;;;4938479;29;20256;-73
2022/05/17 18:30:59;;;;;;;1.27;0.52;;;25.90;76.20;;;;;;4938660;29;20247;-73
2022/05/17 18:33:27;;;;;;;1.67;0.50;;;25.80;75.00;;;;;;4938296;29;20264;-72
2022/05/17 18:35:57;;;;;;;1.02;0.50;;;25.70;74.80;;;;;;4928531;29;20206;-73
2022/05/17 18:38:24;;;;;;;0.60;0.40;;;25.70;75.20;;;;;;4919504;29;20205;-73
2022/05/17 18:40:52;;;;;;;1.42;0.60;;;25.60;74.20;;;;;;4944755;23;20240;-75
2022/05/17 18:43:19;;;;;;;3.40;0.60;;;25.60;75.60;;;;;;4938336;29;20261;-71
2022/05/17 18:45:46;;;;;;;1.60;0.70;;;25.60;74.60;;;;;;4931063;29;20600;-75
2022/05/17 18:48:16;;;;;;;1.92;0.63;;;25.50;74.50;;;;;;4930033;29;20597;-76
2022/05/17 18:50:44;;;;;;;2.28;0.50;;;25.40;76.10;;;;;;4937610;29;20695;-72
2022/05/17 18:53:12;;;;;;;2.45;0.95;;;25.20;75.00;;;;;;4937741;29;20217;-76
2022/05/17 18:55:40;;;;;;;2.13;0.60;;;25.10;79.60;;;;;;4937758;29;20213;-71
2022/05/17 18:58:09;;;;;;;0.60;0.60;;;25.00;80.00;;;;;;4938065;29;20315;-73
2022/05/17 19:00:39;;;;;;;4.43;0.60;;;24.90;80.10;;;;;;4938310;29;20260;-73
2022/05/17 19:03:08;;;;;;;2.70;0.40;;;24.70;82.20;;;;;;4938006;29;20209;-72
2022/05/17 19:05:37;;;;;;;0.98;0.60;;;24.60;80.70;;;;;;4938054;29;20217;-75
2022/05/17 19:13:39;;;;;;;1.52;0.45;;;24.20;85.40;;;;;;4937908;29;20232;-76
2022/05/17 19:16:09;;;;;;;2.28;0.52;;;24.00;87.50;;;;;;4938024;29;20573;-76
2022/05/17 19:18:41;;;;;;;0.63;0.40;;;23.90;87.20;;;;;;4937186;29;20213;-72
2022/05/17 19:21:15;;;;;;;1.00;0.43;;;23.80;88.70;;;;;;4931925;29;20205;-74
2022/05/17 19:23:43;;;;;;;0.70;0.50;;;23.70;89.10;;;;;;4936546;29;20255;-73
2022/05/17 19:26:10;;;;;;;1.00;0.50;;;23.50;90.10;;;;;;4937733;29;20212;-72
2022/05/17 19:28:37;;;;;;;1.73;1.23;;;23.40;90.40;;;;;;4937153;29;20205;-71
2022/05/17 19:31:05;;;;;;;1.23;0.55;;;23.30;90.30;;;;;;4937256;29;20251;-71
2022/05/17 19:33:33;;;;;;;1.38;0.70;;;23.10;90.10;;;;;;4936626;29;20624;-72
2022/05/17 19:36:01;;;;;;;1.48;0.55;;;23.00;91.00;;;;;;4936924;29;20656;-71
2022/05/17 19:41:13;;;;;;;1.20;0.60;;;22.90;91.20;;;;;;4925149;29;20757;-73
2022/05/17 19:43:40;;;;;;;1.23;0.63;;;22.80;91.10;;;;;;4934435;29;20582;-76
2022/05/17 19:46:08;;;;;;;1.33;0.60;;;22.60;91.20;;;;;;4928407;29;20213;-71
2022/05/17 19:48:40;;;;;;;0.90;0.52;;;22.40;91.30;;;;;;4931622;29;20213;-74
2022/05/17 19:51:11;;;;;;;1.35;0.55;;;22.30;92.00;;;;;;4933389;29;20241;-76
2022/05/17 19:53:38;;;;;;;2.35;0.63;;;22.20;91.90;;;;;;4917363;29;20596;-72
2022/05/17 19:56:07;;;;;;;1.45;0.77;;;22.10;92.20;;;;;;4917712;29;20213;-72
2022/05/17 19:58:36;;;;;;;1.33;0.50;;;22.00;92.70;;;;;;4918151;29;20237;-72
2022/05/17 20:01:04;;;;;;;3.28;0.90;;;22.00;93.10;;;;;;4917007;29;20248;-72
2022/05/17 20:03:31;;;;;;;1.67;0.80;;;21.80;94.00;;;;;;4917968;29;20287;-76
2022/05/17 20:05:58;;;;;;;0.70;0.47;;;21.70;93.70;;;;;;4917417;29;20209;-72
2022/05/17 20:08:25;;;;;;;0.98;0.52;;;21.50;94.10;;;;;;4917727;29;20680;-73
2022/05/17 20:10:52;;;;;;;4.28;1.00;;;21.50;94.50;;;;;;4918041;29;20238;-71
2022/05/17 20:13:19;;;;;;;3.28;0.80;;;21.50;93.70;;;;;;4917124;29;20278;-74
2022/05/17 20:15:48;;;;;;;0.80;0.80;;;21.40;94.50;;;;;;4917428;29;20580;-71
2022/05/17 20:18:15;;;;;;;1.13;0.80;;;21.30;94.60;;;;;;4916851;29;20205;-72
2022/05/17 20:20:44;;;;;;;2.20;0.70;;;21.20;94.80;;;;;;4916949;29;20213;-73
2022/05/17 20:23:13;;;;;;;1.30;0.80;;;21.10;95.10;;;;;;4917078;29;20561;-72
2022/05/17 20:25:41;;;;;;;0.70;0.70;;;21.20;95.40;;;;;;4917466;29;20209;-74
2022/05/17 20:28:09;;;;;;;2.25;0.80;;;21.10;96.00;;;;;;4928054;29;20210;-74
2022/05/17 20:30:36;;;;;;;3.00;0.70;;;21.00;95.90;;;;;;4929210;29;20235;-72